Time;durP1;ratioP1;P1;durP2;ratioP2;P2;SDS_P1;SDS_P2;PMS_P1;PMS_P2;Temp;Humidity;BMP_temperature;BMP_pressure;BME280_temperature;BME280_humidity;BME280_pressure;Samples;Min_cycle;Max_cycle;Signal;HPM_P1;HPM_P2
2022/02/07 00:01:09;;;;;;;12.10;8.27;;;;;;;;;;5095194;28;20192;-89
2022/02/07 00:03:43;;;;;;;10.50;7.80;;;;;;;;;;5095092;28;20672;-89
2022/02/07 00:06:12;;;;;;;8.07;7.20;;;;;;;;;;5095211;28;20188;-89
2022/02/07 00:08:40;;;;;;;8.87;7.97;;;;;;;;;;5094774;28;20575;-89
2022/02/07 00:11:07;;;;;;;14.73;10.97;;;;;;;;;;5094787;28;20196;-89
2022/02/07 00:13:35;;;;;;;13.70;10.87;;;;;;;;;;5095439;28;20672;-89
2022/02/07 00:16:03;;;;;;;12.63;9.50;;;;;;;;;;5094825;28;20218;-88
2022/02/07 00:18:30;;;;;;;16.57;9.27;;;;;;;;;;5094615;28;20192;-88
2022/02/07 00:20:58;;;;;;;10.17;8.97;;;;;;;;;;5094277;28;20287;-88
2022/02/07 00:23:26;;;;;;;10.87;8.73;;;;;;;;;;5094011;28;20231;-88
2022/02/07 00:25:54;;;;;;;12.60;9.23;;;;;;;;;;5095034;28;20259;-88
2022/02/07 00:28:21;;;;;;;10.53;9.40;;;;;;;;;;5095014;28;20200;-86
2022/02/07 00:30:50;;;;;;;9.90;8.23;;;;;;;;;;5094797;28;20192;-88
2022/02/07 00:33:17;;;;;;;9.67;8.47;;;;;;;;;;5094830;28;20196;-88
2022/02/07 00:35:44;;;;;;;10.40;8.40;;;;;;;;;;5094187;28;20202;-88
2022/02/07 00:38:17;;;;;;;9.80;8.40;;;;;;;;;;5094333;28;20227;-88
2022/02/07 00:40:48;;;;;;;9.93;8.00;;;;;;;;;;5094323;28;20254;-88
2022/02/07 00:43:27;;;;;;;9.13;8.10;;;;;;;;;;5094342;28;20240;-88
2022/02/07 00:46:03;;;;;;;8.10;7.30;;;;;;;;;;5094030;28;20276;-88
2022/02/07 00:48:30;;;;;;;12.33;8.63;;;;;;;;;;5094306;28;20210;-88
2022/02/07 00:50:57;;;;;;;8.03;6.77;;;;;;;;;;5093709;28;20685;-88
2022/02/07 00:53:25;;;;;;;8.67;7.73;;;;;;;;;;5094507;28;20214;-88
2022/02/07 00:55:52;;;;;;;8.97;7.97;;;;;;;;;;5094024;28;20303;-88
2022/02/07 00:58:20;;;;;;;10.73;9.53;;;;;;;;;;5094171;28;20273;-88
2022/02/07 01:00:47;;;;;;;12.73;10.60;;;;;;;;;;5094580;28;20192;-88
2022/02/07 01:03:17;;;;;;;15.90;11.40;;;;;;;;;;5093656;28;20230;-88
2022/02/07 01:05:44;;;;;;;13.17;10.53;;;;;;;;;;5093457;28;20204;-88
2022/02/07 01:08:11;;;;;;;10.57;9.47;;;;;;;;;;5093912;28;20671;-88
2022/02/07 01:10:49;;;;;;;13.90;8.93;;;;;;;;;;5094325;28;20200;-88
2022/02/07 01:13:26;;;;;;;7.27;6.50;;;;;;;;;;5093848;28;20193;-87
2022/02/07 01:16:02;;;;;;;11.43;7.90;;;;;;;;;;5093620;28;20216;-88
2022/02/07 01:18:57;;;;;;;10.10;8.57;;;;;;;;;;5093336;28;20189;-87
2022/02/07 01:22:06;;;;;;;10.13;8.83;;;;;;;;;;5093180;28;20185;-87
2022/02/07 01:47:07;;;;;;;8.33;7.47;;;;;;;;;;5092960;28;20668;-87
2022/02/07 01:49:55;;;;;;;9.20;7.53;;;;;;;;;;5093053;28;20181;-86
2022/02/07 01:55:13;;;;;;;9.40;7.53;;;;;;;;;;5090702;28;20303;-87
2022/02/07 01:57:44;;;;;;;10.87;9.17;;;;;;;;;;5093370;28;20604;-86
2022/02/07 02:00:12;;;;;;;10.53;9.30;;;;;;;;;;5092531;28;20649;-86
2022/02/07 02:02:40;;;;;;;10.53;9.40;;;;;;;;;;5093666;28;20687;-86
2022/02/07 02:05:08;;;;;;;9.43;8.53;;;;;;;;;;5097258;28;20658;-86
2022/02/07 02:07:37;;;;;;;10.67;7.83;;;;;;;;;;5096632;28;20254;-86
2022/02/07 02:10:05;;;;;;;9.47;7.93;;;;;;;;;;5096594;28;20192;-86
2022/02/07 02:12:37;;;;;;;9.30;8.03;;;;;;;;;;5096617;28;20712;-86
2022/02/07 02:15:20;;;;;;;8.97;8.07;;;;;;;;;;5096345;28;20231;-86
2022/02/07 02:18:17;;;;;;;8.60;7.47;;;;;;;;;;5097184;28;20653;-85
2022/02/07 02:37:50;;;;;;;13.03;10.67;;;;;;;;;;5096065;28;20230;-86
2022/02/07 02:45:48;;;;;;;11.53;9.13;;;;;;;;;;5096147;28;20196;-84
2022/02/07 02:48:19;;;;;;;10.80;9.70;;;;;;;;;;5095444;28;20192;-84
2022/02/07 02:50:49;;;;;;;9.43;8.13;;;;;;;;;;5095331;28;20192;-85
2022/02/07 02:53:18;;;;;;;11.10;8.00;;;;;;;;;;5095562;28;20192;-84
2022/02/07 02:55:49;;;;;;;8.77;7.87;;;;;;;;;;5095089;28;20254;-84
2022/02/07 02:58:18;;;;;;;9.80;8.83;;;;;;;;;;5095091;28;20645;-84
2022/02/07 03:00:46;;;;;;;8.20;7.37;;;;;;;;;;5094918;28;20271;-84
2022/02/07 03:03:14;;;;;;;11.00;8.47;;;;;;;;;;5095213;28;20228;-84
2022/02/07 03:05:44;;;;;;;9.50;7.67;;;;;;;;;;5095248;28;20638;-84
2022/02/07 03:08:11;;;;;;;11.83;8.17;;;;;;;;;;5094980;28;20197;-84
2022/02/07 03:10:48;;;;;;;11.33;8.73;;;;;;;;;;5095034;28;20238;-86
2022/02/07 03:13:30;;;;;;;9.30;7.80;;;;;;;;;;5094548;28;20184;-84
2022/02/07 03:18:42;;;;;;;9.70;7.27;;;;;;;;;;5094792;28;20210;-84
2022/02/07 03:21:09;;;;;;;11.10;7.80;;;;;;;;;;5094865;28;20200;-83
2022/02/07 03:23:37;;;;;;;8.07;7.00;;;;;;;;;;5094854;28;20307;-84
2022/02/07 03:26:04;;;;;;;11.03;8.13;;;;;;;;;;5094628;28;20278;-83
2022/02/07 03:28:33;;;;;;;12.00;8.77;;;;;;;;;;5094576;28;20279;-84
2022/02/07 03:31:00;;;;;;;8.87;7.97;;;;;;;;;;5094294;28;20192;-84
2022/02/07 03:33:27;;;;;;;11.00;8.67;;;;;;;;;;5094325;28;20690;-83
2022/02/07 03:35:55;;;;;;;10.17;8.33;;;;;;;;;;5094285;28;20204;-84
2022/02/07 03:38:22;;;;;;;9.27;8.37;;;;;;;;;;5094273;28;20222;-83
2022/02/07 03:40:49;;;;;;;10.23;8.03;;;;;;;;;;5094292;28;20285;-83
2022/02/07 03:43:16;;;;;;;9.80;8.33;;;;;;;;;;5094522;28;20197;-83
2022/02/07 03:45:45;;;;;;;11.20;8.57;;;;;;;;;;5094463;28;20639;-83
2022/02/07 03:48:12;;;;;;;9.33;8.13;;;;;;;;;;5094033;28;20688;-83
2022/02/07 03:50:40;;;;;;;8.50;7.60;;;;;;;;;;5094060;28;20192;-83
2022/02/07 03:53:07;;;;;;;9.30;8.30;;;;;;;;;;5094003;28;20207;-83
2022/02/07 03:55:34;;;;;;;9.50;8.10;;;;;;;;;;5093897;28;20239;-83
2022/02/07 03:58:02;;;;;;;10.60;9.47;;;;;;;;;;5093896;28;20286;-83
2022/02/07 04:00:29;;;;;;;11.67;8.90;;;;;;;;;;5094153;28;20250;-83
2022/02/07 04:03:02;;;;;;;9.40;8.50;;;;;;;;;;5093851;28;20295;-83
2022/02/07 04:05:43;;;;;;;10.17;8.57;;;;;;;;;;5093636;28;20211;-83
2022/02/07 04:08:11;;;;;;;8.53;7.63;;;;;;;;;;5093845;28;20188;-83
2022/02/07 04:10:50;;;;;;;10.73;8.83;;;;;;;;;;5093912;28;20270;-83
2022/02/07 04:13:25;;;;;;;10.13;8.93;;;;;;;;;;5093652;28;20188;-83
2022/02/07 04:15:54;;;;;;;12.17;9.47;;;;;;;;;;5093879;28;20184;-83
2022/02/07 04:18:24;;;;;;;13.37;10.77;;;;;;;;;;5093451;28;20196;-83
2022/02/07 04:20:51;;;;;;;11.77;10.00;;;;;;;;;;5093807;28;20267;-83
2022/02/07 04:23:18;;;;;;;10.87;8.83;;;;;;;;;;5093289;28;20202;-83
2022/02/07 04:25:45;;;;;;;12.13;9.30;;;;;;;;;;5092455;28;20287;-83
2022/02/07 04:28:13;;;;;;;14.07;12.57;;;;;;;;;;5093346;28;20196;-83
2022/02/07 04:30:40;;;;;;;10.97;9.30;;;;;;;;;;5093532;28;20192;-83
2022/02/07 04:33:07;;;;;;;10.83;9.10;;;;;;;;;;5093252;28;20200;-83
2022/02/07 04:35:36;;;;;;;32.50;23.27;;;;;;;;;;5093094;28;20192;-83
2022/02/07 04:38:04;;;;;;;60.50;32.80;;;;;;;;;;5093187;28;20202;-83
2022/02/07 04:40:31;;;;;;;15.30;12.73;;;;;;;;;;5092792;28;20196;-83
2022/02/07 04:42:59;;;;;;;11.73;10.50;;;;;;;;;;5093031;28;20185;-83
2022/02/07 04:45:37;;;;;;;14.23;9.30;;;;;;;;;;5093209;28;20228;-83
2022/02/07 04:48:37;;;;;;;10.73;8.73;;;;;;;;;;5093313;28;20180;-83
2022/02/07 04:51:25;;;;;;;12.90;9.37;;;;;;;;;;5093067;28;20180;-83
2022/02/07 04:54:13;;;;;;;13.43;10.63;;;;;;;;;;5092862;28;20192;-83
2022/02/07 04:59:30;;;;;;;11.87;9.63;;;;;;;;;;5092751;28;20176;-82
2022/02/07 05:02:07;;;;;;;9.37;7.60;;;;;;;;;;5092925;28;20180;-83
2022/02/07 05:04:40;;;;;;;11.70;9.10;;;;;;;;;;5092604;28;20204;-82
2022/02/07 05:15:18;;;;;;;14.00;12.33;;;;;;;;;;5091634;28;20211;-82
2022/02/07 05:17:45;;;;;;;14.57;11.83;;;;;;;;;;5091757;28;20235;-82
2022/02/07 05:20:13;;;;;;;14.67;10.33;;;;;;;;;;5091062;28;20200;-82
2022/02/07 05:22:42;;;;;;;20.87;14.33;;;;;;;;;;5091338;28;20196;-82
2022/02/07 05:25:09;;;;;;;26.53;19.93;;;;;;;;;;5091171;28;20692;-83
2022/02/07 05:27:36;;;;;;;39.10;27.97;;;;;;;;;;5088460;28;20204;-85
2022/02/07 05:30:06;;;;;;;25.07;16.90;;;;;;;;;;5090872;28;20199;-83
2022/02/07 05:32:37;;;;;;;15.13;11.63;;;;;;;;;;5091510;28;20200;-84
2022/02/07 05:35:07;;;;;;;15.13;12.00;;;;;;;;;;5091716;28;20696;-83
2022/02/07 05:37:34;;;;;;;21.43;14.77;;;;;;;;;;5091162;28;20672;-83
2022/02/07 05:40:08;;;;;;;24.87;19.03;;;;;;;;;;5091442;28;20203;-83
2022/02/07 05:42:37;;;;;;;17.90;14.33;;;;;;;;;;5091060;28;20231;-83
2022/02/07 05:45:06;;;;;;;19.03;13.23;;;;;;;;;;5091135;28;20212;-82
2022/02/07 05:47:34;;;;;;;19.60;14.60;;;;;;;;;;5091098;28;20196;-83
2022/02/07 05:50:01;;;;;;;21.60;15.57;;;;;;;;;;5091220;28;20197;-82
2022/02/07 05:52:28;;;;;;;17.67;13.57;;;;;;;;;;5091573;28;20668;-83
2022/02/07 05:54:55;;;;;;;34.77;27.13;;;;;;;;;;5092060;28;20672;-83
2022/02/07 05:57:24;;;;;;;51.13;39.60;;;;;;;;;;5092061;28;20200;-83
2022/02/07 05:59:51;;;;;;;18.97;16.77;;;;;;;;;;5092897;28;20204;-86
2022/02/07 06:02:19;;;;;;;13.77;10.57;;;;;;;;;;5092230;28;20697;-83
2022/02/07 06:04:46;;;;;;;24.07;19.30;;;;;;;;;;5092711;28;20667;-84
2022/02/07 06:07:13;;;;;;;22.40;19.27;;;;;;;;;;5092482;28;20185;-83
2022/02/07 06:09:40;;;;;;;23.93;19.80;;;;;;;;;;5092468;28;20195;-84
2022/02/07 06:12:09;;;;;;;34.17;25.17;;;;;;;;;;5092297;28;20729;-84
2022/02/07 06:14:37;;;;;;;26.10;19.93;;;;;;;;;;5091976;28;20199;-84
2022/02/07 06:17:05;;;;;;;21.77;17.27;;;;;;;;;;5091968;28;20287;-84
2022/02/07 06:19:32;;;;;;;17.40;14.63;;;;;;;;;;5092342;28;20242;-85
2022/02/07 06:22:00;;;;;;;11.73;10.57;;;;;;;;;;5091904;28;20192;-84
2022/02/07 06:24:27;;;;;;;13.93;11.70;;;;;;;;;;5091979;28;20225;-85
2022/02/07 06:26:54;;;;;;;15.37;11.97;;;;;;;;;;5092716;28;20223;-85
2022/02/07 06:29:21;;;;;;;16.07;13.63;;;;;;;;;;5092602;28;20275;-85
2022/02/07 06:31:50;;;;;;;19.07;13.23;;;;;;;;;;5093605;28;20631;-87
2022/02/07 06:34:17;;;;;;;19.70;14.80;;;;;;;;;;5092569;28;20220;-87
2022/02/07 06:36:44;;;;;;;41.70;31.20;;;;;;;;;;5093253;28;20204;-88
2022/02/07 06:39:12;;;;;;;33.27;24.47;;;;;;;;;;5092994;28;20219;-89
2022/02/07 06:41:42;;;;;;;32.10;25.47;;;;;;;;;;5092570;28;20228;-89
2022/02/07 06:44:10;;;;;;;32.30;23.93;;;;;;;;;;5093421;28;20195;-90
2022/02/07 06:46:37;;;;;;;27.47;18.03;;;;;;;;;;5092671;28;20239;-91
2022/02/07 06:49:06;;;;;;;29.60;20.80;;;;;;;;;;5094140;28;20196;-91
2022/02/07 06:51:33;;;;;;;37.83;26.50;;;;;;;;;;5096778;28;20590;-92
2022/02/07 06:54:00;;;;;;;34.63;25.73;;;;;;;;;;5096752;28;20672;-93
2022/02/07 06:56:28;;;;;;;20.27;16.47;;;;;;;;;;5097529;28;20254;-93
2022/02/07 06:58:55;;;;;;;17.37;13.60;;;;;;;;;;5096309;28;20200;-93
2022/02/07 07:01:22;;;;;;;15.53;13.10;;;;;;;;;;5096352;28;20199;-94
2022/02/07 07:03:49;;;;;;;18.13;15.50;;;;;;;;;;5096349;28;20189;-94
2022/02/07 07:06:18;;;;;;;18.07;14.60;;;;;;;;;;5096858;28;20246;-94
2022/02/07 07:08:49;;;;;;;19.67;13.27;;;;;;;;;;5096902;28;20219;-94
2022/02/07 07:11:20;;;;;;;15.60;13.23;;;;;;;;;;5097548;28;20215;-95
2022/02/07 07:13:54;;;;;;;22.30;16.67;;;;;;;;;;5097426;28;20200;-95
2022/02/07 07:16:40;;;;;;;56.97;37.43;;;;;;;;;;5097208;28;20246;-95
2022/02/07 07:19:07;;;;;;;39.00;26.43;;;;;;;;;;5097102;28;20185;-95
2022/02/07 07:21:36;;;;;;;15.70;12.73;;;;;;;;;;5096400;28;20206;-94
2022/02/07 07:24:04;;;;;;;16.33;11.60;;;;;;;;;;5097191;28;20212;-94
2022/02/07 07:26:31;;;;;;;13.03;11.63;;;;;;;;;;5095945;28;20220;-93
2022/02/07 07:29:06;;;;;;;18.87;11.50;;;;;;;;;;5095989;28;20202;-92
2022/02/07 07:31:39;;;;;;;13.77;11.50;;;;;;;;;;5096893;28;20649;-91
2022/02/07 07:34:07;;;;;;;28.10;18.90;;;;;;;;;;5095898;28;20281;-91
2022/02/07 07:36:34;;;;;;;17.90;15.30;;;;;;;;;;5095785;28;20204;-91
2022/02/07 07:39:04;;;;;;;17.10;14.23;;;;;;;;;;5095563;28;20223;-91
2022/02/07 07:41:31;;;;;;;46.23;37.83;;;;;;;;;;5095521;28;20233;-91
2022/02/07 07:43:58;;;;;;;31.87;25.20;;;;;;;;;;5095057;28;20245;-90
2022/02/07 07:46:29;;;;;;;26.87;20.70;;;;;;;;;;5094958;28;20227;-91
2022/02/07 07:49:01;;;;;;;25.53;18.90;;;;;;;;;;5100830;28;20227;-90
2022/02/07 07:51:38;;;;;;;18.10;13.97;;;;;;;;;;5094834;28;20557;-91
2022/02/07 08:02:30;;;;;;;15.67;13.13;;;;;;;;;;5039204;28;20195;-90
2022/02/07 08:04:58;;;;;;;20.23;15.20;;;;;;;;;;5095835;28;20667;-92
2022/02/07 08:07:28;;;;;;;21.20;15.57;;;;;;;;;;5094853;28;20265;-91
2022/02/07 08:10:25;;;;;;;18.93;15.43;;;;;;;;;;5094788;28;20283;-91
2022/02/07 08:12:53;;;;;;;15.90;12.53;;;;;;;;;;5094754;28;20712;-91
2022/02/07 08:15:20;;;;;;;13.10;11.67;;;;;;;;;;5094540;28;20193;-92
2022/02/07 08:17:47;;;;;;;16.43;13.90;;;;;;;;;;5094669;28;20200;-92
2022/02/07 08:20:14;;;;;;;24.63;20.90;;;;;;;;;;5094930;28;20294;-92
2022/02/07 08:22:42;;;;;;;13.23;11.93;;;;;;;;;;5094870;28;20231;-92
2022/02/07 08:25:11;;;;;;;10.80;9.73;;;;;;;;;;5094659;28;20704;-92
2022/02/07 08:27:39;;;;;;;13.53;11.77;;;;;;;;;;5094576;28;20196;-92
2022/02/07 08:30:07;;;;;;;13.30;9.70;;;;;;;;;;5094663;28;20200;-92
2022/02/07 08:32:35;;;;;;;13.77;12.43;;;;;;;;;;5094424;28;20290;-92
2022/02/07 08:35:03;;;;;;;13.23;11.47;;;;;;;;;;5094824;28;20188;-92
2022/02/07 08:37:31;;;;;;;10.63;9.53;;;;;;;;;;5094720;28;20198;-92
2022/02/07 08:39:58;;;;;;;10.77;9.67;;;;;;;;;;5094654;28;20227;-92
2022/02/07 08:42:27;;;;;;;10.67;8.90;;;;;;;;;;5094201;28;20296;-90
2022/02/07 08:44:54;;;;;;;28.43;19.30;;;;;;;;;;5094147;28;20220;-92
2022/02/07 08:47:22;;;;;;;19.57;13.23;;;;;;;;;;5094235;28;20196;-92
2022/02/07 08:49:50;;;;;;;17.63;11.53;;;;;;;;;;5094119;28;20236;-91
2022/02/07 08:52:18;;;;;;;11.50;10.37;;;;;;;;;;5094223;28;20231;-92
2022/02/07 08:54:45;;;;;;;11.27;10.13;;;;;;;;;;5094217;28;20283;-92
2022/02/07 08:57:18;;;;;;;12.90;11.50;;;;;;;;;;5094133;28;20582;-91
2022/02/07 09:00:00;;;;;;;15.63;12.90;;;;;;;;;;5094189;28;20236;-92
2022/02/07 09:02:54;;;;;;;14.07;11.80;;;;;;;;;;5094020;28;20214;-91
2022/02/07 09:05:37;;;;;;;15.50;11.77;;;;;;;;;;5094128;28;20301;-91
2022/02/07 09:08:19;;;;;;;13.93;10.90;;;;;;;;;;5093998;28;20287;-92
2022/02/07 09:10:48;;;;;;;16.90;12.83;;;;;;;;;;5093655;28;20204;-92
2022/02/07 09:13:15;;;;;;;14.53;12.43;;;;;;;;;;5093336;28;20196;-92
2022/02/07 09:15:55;;;;;;;13.10;10.33;;;;;;;;;;5094505;28;20277;-91
2022/02/07 09:18:22;;;;;;;11.13;9.57;;;;;;;;;;5094064;28;20609;-91
2022/02/07 09:20:51;;;;;;;10.70;9.60;;;;;;;;;;5093519;28;20235;-91
2022/02/07 09:23:18;;;;;;;10.50;8.90;;;;;;;;;;5093345;28;20188;-91
2022/02/07 09:25:46;;;;;;;13.27;10.33;;;;;;;;;;5093313;28;20224;-91
2022/02/07 09:28:13;;;;;;;11.30;8.83;;;;;;;;;;5093729;28;20184;-91
2022/02/07 09:30:40;;;;;;;12.63;11.00;;;;;;;;;;5094015;28;20215;-91
2022/02/07 09:33:09;;;;;;;15.87;13.77;;;;;;;;;;5093239;28;20278;-92
2022/02/07 09:35:36;;;;;;;16.40;12.90;;;;;;;;;;5093573;28;20257;-91
2022/02/07 09:38:04;;;;;;;12.80;11.33;;;;;;;;;;5093307;28;20287;-92
2022/02/07 09:40:31;;;;;;;22.53;18.53;;;;;;;;;;5093122;28;20237;-92
2022/02/07 09:42:59;;;;;;;28.37;22.40;;;;;;;;;;5093286;28;20219;-92
2022/02/07 09:45:32;;;;;;;16.93;15.10;;;;;;;;;;5093407;28;20220;-91
2022/02/07 09:48:08;;;;;;;31.13;25.33;;;;;;;;;;5093485;28;20215;-91
2022/02/07 09:50:37;;;;;;;32.33;28.37;;;;;;;;;;5093286;28;20660;-91
2022/02/07 09:53:05;;;;;;;32.03;24.70;;;;;;;;;;5093072;28;20295;-92
2022/02/07 09:55:33;;;;;;;25.47;19.00;;;;;;;;;;5093112;28;20198;-92
2022/02/07 09:58:00;;;;;;;20.67;16.30;;;;;;;;;;5093399;28;20193;-92
2022/02/07 10:00:32;;;;;;;14.03;11.10;;;;;;;;;;5093128;28;20249;-93
2022/02/07 10:03:08;;;;;;;12.27;9.57;;;;;;;;;;5093310;28;20226;-92
2022/02/07 10:05:48;;;;;;;11.73;9.63;;;;;;;;;;5092834;28;20325;-92
2022/02/07 10:08:22;;;;;;;15.93;11.03;;;;;;;;;;5092691;28;20206;-92
2022/02/07 10:11:06;;;;;;;14.67;11.20;;;;;;;;;;5093374;28;20253;-92
2022/02/07 10:13:44;;;;;;;15.47;13.13;;;;;;;;;;5093267;28;20189;-92
2022/02/07 10:16:29;;;;;;;12.07;10.80;;;;;;;;;;5092830;28;20184;-91
2022/02/07 10:19:14;;;;;;;16.03;12.40;;;;;;;;;;5092864;28;20184;-92
2022/02/07 10:38:40;;;;;;;21.97;18.40;;;;;;;;;;5096643;28;20570;-92
2022/02/07 10:41:22;;;;;;;14.47;12.00;;;;;;;;;;5096453;28;20223;-92
2022/02/07 10:44:04;;;;;;;18.70;13.10;;;;;;;;;;5096600;28;20211;-93
2022/02/07 10:46:35;;;;;;;14.03;10.50;;;;;;;;;;5096384;28;20211;-93
2022/02/07 10:49:09;;;;;;;56.00;20.90;;;;;;;;;;5096637;28;20242;-91
2022/02/07 10:51:37;;;;;;;9.37;8.53;;;;;;;;;;5096291;28;20652;-92
2022/02/07 10:54:11;;;;;;;12.13;9.13;;;;;;;;;;5096077;28;20196;-91
2022/02/07 10:56:42;;;;;;;12.33;10.90;;;;;;;;;;5096459;28;20180;-92
2022/02/07 10:59:13;;;;;;;15.77;12.60;;;;;;;;;;5096498;28;20608;-92
2022/02/07 11:04:28;;;;;;;12.30;8.97;;;;;;;;;;5082639;28;20231;-92
2022/02/07 11:07:00;;;;;;;13.27;9.93;;;;;;;;;;5096089;28;20208;-93
2022/02/07 11:09:36;;;;;;;9.90;8.77;;;;;;;;;;5096350;28;20539;-92
2022/02/07 11:12:21;;;;;;;11.07;9.57;;;;;;;;;;5096057;28;20728;-92
2022/02/07 11:14:58;;;;;;;13.97;12.43;;;;;;;;;;5095791;28;20184;-92
2022/02/07 11:23:12;;;;;;;11.80;10.50;;;;;;;;;;5092920;28;20235;-92
2022/02/07 11:25:48;;;;;;;11.07;9.53;;;;;;;;;;5095474;28;20210;-92
2022/02/07 11:28:21;;;;;;;11.70;9.33;;;;;;;;;;5095672;28;20202;-92
2022/02/07 11:30:50;;;;;;;12.40;10.53;;;;;;;;;;5095459;28;20185;-92
2022/02/07 11:34:00;;;;;;;11.23;10.10;;;;;;;;;;5095570;28;20201;-92
2022/02/07 11:36:30;;;;;;;11.40;10.10;;;;;;;;;;5066343;28;20192;-91
2022/02/07 11:39:11;;;;;;;11.73;9.67;;;;;;;;;;5095253;28;20196;-92
2022/02/07 11:42:17;;;;;;;12.13;9.20;;;;;;;;;;5095010;28;20235;-92
2022/02/07 11:45:13;;;;;;;12.60;10.67;;;;;;;;;;5096474;28;20184;-92
2022/02/07 11:47:40;;;;;;;14.43;10.77;;;;;;;;;;5094857;28;20201;-93
2022/02/07 11:50:08;;;;;;;11.00;9.83;;;;;;;;;;5095271;28;20322;-92
2022/02/07 11:52:42;;;;;;;13.73;10.90;;;;;;;;;;5095051;28;20319;-91
2022/02/07 11:55:12;;;;;;;12.73;10.00;;;;;;;;;;5095126;28;20205;-92
2022/02/07 11:57:52;;;;;;;14.37;9.73;;;;;;;;;;5095414;28;20204;-91
2022/02/07 12:00:23;;;;;;;12.67;9.60;;;;;;;;;;5095708;28;20613;-92
2022/02/07 12:02:51;;;;;;;14.17;12.23;;;;;;;;;;5095062;28;20633;-90
2022/02/07 12:05:19;;;;;;;18.73;12.43;;;;;;;;;;5094852;28;20192;-92
2022/02/07 12:08:00;;;;;;;21.53;13.67;;;;;;;;;;5094661;28;20228;-92
2022/02/07 12:10:35;;;;;;;32.37;18.37;;;;;;;;;;5094957;28;20193;-92
2022/02/07 12:13:20;;;;;;;24.47;16.77;;;;;;;;;;5094499;28;20191;-92
2022/02/07 12:15:52;;;;;;;10.63;9.50;;;;;;;;;;5094656;28;20199;-92
2022/02/07 12:18:21;;;;;;;9.53;8.53;;;;;;;;;;5094459;28;20211;-92
2022/02/07 12:20:50;;;;;;;8.70;7.80;;;;;;;;;;5094387;28;20249;-93
2022/02/07 12:23:19;;;;;;;8.93;8.00;;;;;;;;;;5094460;28;20196;-93
2022/02/07 12:25:49;;;;;;;11.50;9.17;;;;;;;;;;5094251;28;20207;-93
2022/02/07 12:28:28;;;;;;;9.83;8.93;;;;;;;;;;5094637;28;20204;-93
2022/02/07 12:31:08;;;;;;;10.17;7.67;;;;;;;;;;5094883;28;20200;-93
2022/02/07 12:33:36;;;;;;;8.60;7.40;;;;;;;;;;5094705;28;20184;-93
2022/02/07 12:36:04;;;;;;;8.17;7.37;;;;;;;;;;5094158;28;20232;-93
2022/02/07 12:38:34;;;;;;;11.80;8.60;;;;;;;;;;5093854;28;20184;-93
2022/02/07 12:41:03;;;;;;;8.77;7.87;;;;;;;;;;5093800;28;20228;-93
2022/02/07 12:43:33;;;;;;;12.70;8.07;;;;;;;;;;5093991;28;20188;-93
2022/02/07 12:46:00;;;;;;;9.87;8.07;;;;;;;;;;5093227;28;20220;-93
2022/02/07 12:48:30;;;;;;;12.27;10.00;;;;;;;;;;5093891;28;20241;-92
2022/02/07 12:50:57;;;;;;;54.90;31.97;;;;;;;;;;5093720;28;20220;-92
2022/02/07 12:53:27;;;;;;;64.73;33.20;;;;;;;;;;5093848;28;20239;-92
2022/02/07 12:55:56;;;;;;;50.20;27.50;;;;;;;;;;5094006;28;20214;-93
2022/02/07 12:58:25;;;;;;;137.90;56.87;;;;;;;;;;5093999;28;20196;-92
2022/02/07 13:00:53;;;;;;;107.63;50.33;;;;;;;;;;5093813;28;20608;-91
2022/02/07 13:03:21;;;;;;;17.33;13.20;;;;;;;;;;5094200;28;20196;-92
2022/02/07 13:05:49;;;;;;;20.50;14.97;;;;;;;;;;5093611;28;20213;-92
2022/02/07 13:08:18;;;;;;;28.30;25.80;;;;;;;;;;5093551;28;20195;-93
2022/02/07 13:10:53;;;;;;;13.40;12.10;;;;;;;;;;5096387;28;20197;-91
2022/02/07 13:13:28;;;;;;;15.03;11.43;;;;;;;;;;5094893;28;20198;-93
2022/02/07 13:15:58;;;;;;;13.10;10.53;;;;;;;;;;5093785;28;20192;-92
2022/02/07 13:18:32;;;;;;;12.47;11.17;;;;;;;;;;5093451;28;20275;-92
2022/02/07 13:21:04;;;;;;;18.87;15.23;;;;;;;;;;5093562;28;20198;-92
2022/02/07 13:23:31;;;;;;;25.73;21.80;;;;;;;;;;5093741;28;20208;-93
2022/02/07 13:26:01;;;;;;;23.50;20.97;;;;;;;;;;5093617;28;20711;-92
2022/02/07 13:28:31;;;;;;;22.17;19.97;;;;;;;;;;5093844;28;20581;-93
2022/02/07 13:31:01;;;;;;;17.73;16.00;;;;;;;;;;5093324;28;20227;-92
2022/02/07 13:33:28;;;;;;;13.77;11.53;;;;;;;;;;5093481;28;20208;-92
2022/02/07 13:35:58;;;;;;;18.17;13.33;;;;;;;;;;5094091;28;20196;-91
2022/02/07 13:38:26;;;;;;;23.07;20.63;;;;;;;;;;5093255;28;20212;-92
2022/02/07 13:41:00;;;;;;;24.63;21.80;;;;;;;;;;5093062;28;20289;-92
2022/02/07 13:43:28;;;;;;;22.30;19.13;;;;;;;;;;5093275;28;20200;-93
2022/02/07 13:45:58;;;;;;;19.87;16.90;;;;;;;;;;5093109;28;20578;-92
2022/02/07 13:48:28;;;;;;;23.73;17.97;;;;;;;;;;5093270;28;20197;-92
2022/02/07 13:50:57;;;;;;;14.20;12.77;;;;;;;;;;5093821;28;20219;-92
2022/02/07 13:53:26;;;;;;;11.50;9.77;;;;;;;;;;5093639;28;20196;-91
2022/02/07 13:55:56;;;;;;;14.00;12.23;;;;;;;;;;5093133;28;20200;-92
2022/02/07 13:58:33;;;;;;;12.27;10.53;;;;;;;;;;5095415;28;20202;-91
2022/02/07 14:01:02;;;;;;;11.47;8.57;;;;;;;;;;5097152;28;20200;-91
2022/02/07 14:03:35;;;;;;;9.77;7.97;;;;;;;;;;5097168;28;20203;-91
2022/02/07 14:06:06;;;;;;;14.40;10.43;;;;;;;;;;5097115;28;20257;-91
2022/02/07 14:08:36;;;;;;;9.37;8.30;;;;;;;;;;5097260;28;20279;-92
2022/02/07 14:11:06;;;;;;;9.20;7.97;;;;;;;;;;5097080;28;20269;-92
2022/02/07 14:13:33;;;;;;;9.03;6.30;;;;;;;;;;5096942;28;20192;-91
2022/02/07 14:16:01;;;;;;;9.37;6.33;;;;;;;;;;5097111;28;20223;-93
2022/02/07 14:18:30;;;;;;;6.33;5.60;;;;;;;;;;5096947;28;20208;-92
2022/02/07 14:21:08;;;;;;;6.17;5.47;;;;;;;;;;5097193;28;20251;-92
2022/02/07 14:23:36;;;;;;;5.10;4.50;;;;;;;;;;5100376;28;20639;-93
2022/02/07 14:26:04;;;;;;;6.77;5.50;;;;;;;;;;5096825;28;20196;-92
2022/02/07 14:28:32;;;;;;;32.43;21.37;;;;;;;;;;5096556;28;20216;-93
2022/02/07 14:31:00;;;;;;;38.93;27.33;;;;;;;;;;5096826;28;20188;-92
2022/02/07 14:33:28;;;;;;;9.73;8.73;;;;;;;;;;5097360;28;20671;-93
2022/02/07 14:35:55;;;;;;;28.03;16.83;;;;;;;;;;5096769;28;20313;-92
2022/02/07 14:38:25;;;;;;;43.10;22.00;;;;;;;;;;5096631;28;20200;-92
2022/02/07 14:40:52;;;;;;;13.73;7.93;;;;;;;;;;5096576;28;20773;-93
2022/02/07 14:43:27;;;;;;;10.97;9.77;;;;;;;;;;5096655;28;20325;-92
2022/02/07 14:45:56;;;;;;;7.43;6.60;;;;;;;;;;5096718;28;20191;-92
2022/02/07 14:48:24;;;;;;;7.07;5.63;;;;;;;;;;5096187;28;20584;-92
2022/02/07 14:50:52;;;;;;;7.07;5.40;;;;;;;;;;5096193;28;20192;-92
2022/02/07 14:53:19;;;;;;;5.97;5.37;;;;;;;;;;5096048;28;20664;-92
2022/02/07 14:55:48;;;;;;;12.40;6.43;;;;;;;;;;5096290;28;20196;-92
2022/02/07 14:58:15;;;;;;;27.73;13.87;;;;;;;;;;5096189;28;20200;-91
2022/02/07 15:00:42;;;;;;;28.00;17.10;;;;;;;;;;5096039;28;20278;-91
2022/02/07 15:03:12;;;;;;;22.10;14.57;;;;;;;;;;5095971;28;20279;-92
2022/02/07 15:05:40;;;;;;;14.77;11.27;;;;;;;;;;5096090;28;20196;-92
2022/02/07 15:08:08;;;;;;;15.77;10.30;;;;;;;;;;5096165;28;20235;-92
2022/02/07 15:10:41;;;;;;;11.20;7.40;;;;;;;;;;5095160;28;20698;-92
2022/02/07 15:13:10;;;;;;;8.10;7.30;;;;;;;;;;5095882;28;20235;-92
2022/02/07 15:15:37;;;;;;;21.03;18.47;;;;;;;;;;5097002;28;20200;-92
2022/02/07 15:18:06;;;;;;;28.40;23.00;;;;;;;;;;5095720;28;20192;-92
2022/02/07 15:20:34;;;;;;;21.87;16.67;;;;;;;;;;5095860;28;20196;-92
2022/02/07 15:23:01;;;;;;;16.87;12.77;;;;;;;;;;5095465;28;20199;-93
2022/02/07 15:25:30;;;;;;;17.23;10.93;;;;;;;;;;5095481;28;20279;-92
2022/02/07 15:27:59;;;;;;;13.93;9.50;;;;;;;;;;5095725;28;20226;-92
2022/02/07 15:30:33;;;;;;;13.67;10.37;;;;;;;;;;5095417;28;20677;-92
2022/02/07 15:33:01;;;;;;;24.50;11.57;;;;;;;;;;5095336;28;20190;-92
2022/02/07 15:35:28;;;;;;;14.00;11.97;;;;;;;;;;5096098;28;20676;-92
2022/02/07 15:37:56;;;;;;;18.33;14.50;;;;;;;;;;5095583;28;20635;-92
2022/02/07 15:40:23;;;;;;;20.53;15.17;;;;;;;;;;5094933;28;20196;-92
2022/02/07 15:42:50;;;;;;;19.40;15.00;;;;;;;;;;5095269;28;20216;-92
2022/02/07 15:45:18;;;;;;;14.57;11.37;;;;;;;;;;5095066;28;20270;-93
2022/02/07 15:47:47;;;;;;;11.83;10.57;;;;;;;;;;5094868;28;20255;-93
2022/02/07 15:50:15;;;;;;;12.03;9.30;;;;;;;;;;5095309;28;20239;-92
2022/02/07 15:52:43;;;;;;;12.37;9.53;;;;;;;;;;5095073;28;20203;-93
2022/02/07 15:55:12;;;;;;;10.50;9.50;;;;;;;;;;5094947;28;20196;-93
2022/02/07 15:57:40;;;;;;;10.73;9.47;;;;;;;;;;5095239;28;20215;-93
2022/02/07 16:00:08;;;;;;;9.93;9.03;;;;;;;;;;5094790;28;20249;-93
2022/02/07 16:02:37;;;;;;;15.50;11.33;;;;;;;;;;5095175;28;20223;-93
2022/02/07 16:05:06;;;;;;;14.70;11.13;;;;;;;;;;5094825;28;20661;-94
2022/02/07 16:07:33;;;;;;;15.07;12.40;;;;;;;;;;5094623;28;20224;-94
2022/02/07 16:10:02;;;;;;;15.37;12.93;;;;;;;;;;5094494;28;20691;-93
2022/02/07 16:12:29;;;;;;;22.77;17.67;;;;;;;;;;5094509;28;20250;-93
2022/02/07 16:14:57;;;;;;;19.97;14.60;;;;;;;;;;5094453;28;20196;-93
2022/02/07 16:17:25;;;;;;;13.77;12.43;;;;;;;;;;5095181;28;20224;-92
2022/02/07 16:19:52;;;;;;;36.47;29.23;;;;;;;;;;5094581;28;20196;-93